Time;durP1;ratioP1;P1;durP2;ratioP2;P2;SDS_P1;SDS_P2;PMS_P1;PMS_P2;Temp;Humidity;BMP_temperature;BMP_pressure;BME280_temperature;BME280_humidity;BME280_pressure;Samples;Min_cycle;Max_cycle;Signal;HPM_P1;HPM_P2
2023/09/16 00:00:32;;;;;;;5.95;3.63;;;18.00;99.90;;;;;;4952683;28;20028;-71
2023/09/16 00:02:58;;;;;;;5.63;3.10;;;18.10;99.90;;;;;;4961485;28;20031;-71
2023/09/16 00:05:24;;;;;;;4.93;3.13;;;18.10;99.90;;;;;;4957020;28;20027;-71
2023/09/16 00:07:50;;;;;;;5.40;3.45;;;18.10;99.90;;;;;;4957214;28;20400;-71
2023/09/16 00:10:15;;;;;;;7.18;3.40;;;18.10;99.90;;;;;;4954134;28;20043;-71
2023/09/16 00:12:41;;;;;;;6.88;3.55;;;18.10;99.90;;;;;;4956780;28;20105;-71
2023/09/16 00:15:07;;;;;;;4.78;2.97;;;18.10;99.90;;;;;;4953896;28;20358;-71
2023/09/16 00:17:36;;;;;;;5.80;3.55;;;18.10;99.90;;;;;;4955623;28;20455;-71
2023/09/16 00:20:09;;;;;;;4.47;2.65;;;18.10;99.90;;;;;;4965956;28;20035;-71
2023/09/16 00:22:36;;;;;;;4.82;2.78;;;18.10;99.90;;;;;;4962743;28;20400;-71
2023/09/16 00:25:02;;;;;;;4.05;2.60;;;18.20;99.90;;;;;;4961940;28;20039;-71
2023/09/16 00:27:27;;;;;;;4.80;3.00;;;18.20;99.90;;;;;;4970553;28;20054;-71
2023/09/16 00:29:53;;;;;;;4.57;3.20;;;18.20;99.90;;;;;;4964409;28;20050;-71
2023/09/16 00:32:19;;;;;;;6.45;3.17;;;18.20;99.90;;;;;;4966891;28;20038;-71
2023/09/16 00:34:44;;;;;;;4.95;3.03;;;18.20;99.90;;;;;;4961124;28;20027;-71
2023/09/16 00:37:10;;;;;;;5.95;3.63;;;18.20;99.90;;;;;;4964073;28;20389;-71
2023/09/16 00:39:36;;;;;;;6.75;2.97;;;18.20;99.90;;;;;;4966185;28;20035;-71
2023/09/16 00:42:02;;;;;;;5.25;3.50;;;18.30;99.90;;;;;;4966344;28;20037;-71
2023/09/16 00:44:28;;;;;;;5.13;3.20;;;18.30;99.90;;;;;;4965456;28;20526;-71
2023/09/16 00:46:53;;;;;;;4.18;2.72;;;18.40;99.90;;;;;;4960316;28;20054;-71
2023/09/16 00:49:19;;;;;;;5.13;2.78;;;18.40;99.90;;;;;;4966408;28;20041;-71
2023/09/16 00:51:45;;;;;;;11.93;3.33;;;18.00;99.90;;;;;;4968829;28;20034;-71
2023/09/16 00:54:11;;;;;;;5.40;3.15;;;18.10;99.90;;;;;;4961203;28;20034;-71
2023/09/16 00:56:37;;;;;;;4.53;3.03;;;18.20;99.90;;;;;;4959841;28;20061;-71
2023/09/16 00:59:03;;;;;;;4.82;2.88;;;18.20;99.90;;;;;;4959544;28;20035;-71
2023/09/16 01:01:30;;;;;;;4.60;2.95;;;18.20;99.90;;;;;;4970653;28;20046;-71
2023/09/16 01:03:57;;;;;;;4.85;3.17;;;18.20;99.90;;;;;;4960382;28;20113;-71
2023/09/16 01:06:23;;;;;;;7.80;3.28;;;18.10;99.90;;;;;;4963988;28;20102;-71
2023/09/16 01:08:50;;;;;;;7.22;3.75;;;18.00;99.90;;;;;;4965394;28;20443;-71
2023/09/16 01:11:15;;;;;;;6.35;3.60;;;17.90;99.90;;;;;;4965376;28;20024;-71
2023/09/16 01:13:41;;;;;;;5.10;2.95;;;17.90;99.90;;;;;;4954484;28;20077;-71
2023/09/16 01:16:35;;;;;;;5.63;3.58;;;18.00;99.90;;;;;;4965488;28;20034;-71
2023/09/16 01:19:21;;;;;;;5.13;2.85;;;18.00;99.90;;;;;;4955204;28;20046;-71
2023/09/16 01:21:48;;;;;;;5.13;3.10;;;18.00;99.90;;;;;;4967309;28;20058;-71
2023/09/16 01:24:17;;;;;;;6.93;3.15;;;18.00;99.90;;;;;;4961924;28;20023;-71
2023/09/16 01:26:43;;;;;;;7.38;2.88;;;18.00;99.90;;;;;;4970301;28;20034;-71
2023/09/16 01:29:09;;;;;;;4.72;2.95;;;18.00;99.90;;;;;;4965762;28;20489;-71
2023/09/16 01:31:36;;;;;;;5.90;3.05;;;17.90;99.90;;;;;;4958155;28;20153;-71
2023/09/16 01:34:07;;;;;;;4.25;2.67;;;17.80;99.90;;;;;;4961847;28;20114;-71
2023/09/16 01:36:34;;;;;;;4.45;3.00;;;17.80;99.90;;;;;;4963350;28;20027;-71
2023/09/16 01:39:05;;;;;;;9.88;3.45;;;17.80;99.90;;;;;;4963052;28;20082;-71
2023/09/16 01:41:34;;;;;;;5.65;3.50;;;17.80;99.90;;;;;;4967793;28;20085;-71
2023/09/16 01:44:04;;;;;;;5.03;3.40;;;17.90;99.90;;;;;;4962337;28;20106;-71
2023/09/16 01:46:29;;;;;;;7.60;3.15;;;17.80;99.90;;;;;;4959367;28;20041;-71
2023/09/16 01:48:55;;;;;;;5.90;3.55;;;17.80;99.90;;;;;;4966999;28;20031;-71
2023/09/16 01:51:22;;;;;;;5.65;3.45;;;17.70;99.90;;;;;;4968580;28;20042;-72
2023/09/16 01:53:47;;;;;;;6.30;3.20;;;17.70;99.90;;;;;;4965667;28;20065;-71
2023/09/16 01:56:13;;;;;;;6.95;3.95;;;17.70;99.90;;;;;;4965512;28;20031;-71
2023/09/16 01:58:38;;;;;;;4.95;3.13;;;17.70;99.90;;;;;;4969131;28;20041;-71
2023/09/16 02:01:11;;;;;;;5.40;2.80;;;17.70;99.90;;;;;;4969870;28;20046;-71
2023/09/16 02:03:37;;;;;;;5.18;3.28;;;17.60;99.90;;;;;;4968963;28;20496;-71
2023/09/16 02:06:05;;;;;;;6.50;3.50;;;17.50;99.90;;;;;;4966552;28;20028;-71
2023/09/16 02:08:30;;;;;;;7.50;2.92;;;17.40;99.90;;;;;;4966374;28;20388;-71
2023/09/16 02:10:57;;;;;;;6.25;3.33;;;17.40;99.90;;;;;;4969371;28;20027;-71
2023/09/16 02:13:22;;;;;;;4.78;2.97;;;17.40;99.90;;;;;;4964415;28;20453;-71
2023/09/16 02:15:48;;;;;;;5.47;2.97;;;17.40;99.90;;;;;;4972287;28;20493;-71
2023/09/16 02:18:14;;;;;;;5.90;3.20;;;17.40;99.90;;;;;;4965471;28;20058;-71
2023/09/16 02:20:39;;;;;;;4.53;2.70;;;17.50;99.90;;;;;;4965630;28;20039;-71
2023/09/16 02:23:06;;;;;;;4.65;2.90;;;17.50;99.90;;;;;;4972501;28;20022;-71
2023/09/16 02:25:35;;;;;;;5.28;2.78;;;17.40;99.90;;;;;;4969424;28;20043;-71
2023/09/16 02:28:01;;;;;;;5.25;3.22;;;17.50;99.90;;;;;;4955386;28;20054;-71
2023/09/16 02:30:27;;;;;;;4.60;3.08;;;17.40;99.90;;;;;;4968121;28;20033;-71
2023/09/16 02:32:52;;;;;;;5.82;3.58;;;17.50;99.90;;;;;;4970630;28;20035;-71
2023/09/16 02:35:18;;;;;;;5.18;3.67;;;17.40;99.90;;;;;;4971266;28;20109;-71
2023/09/16 02:37:44;;;;;;;5.50;3.28;;;17.40;99.90;;;;;;4973103;28;20041;-71
2023/09/16 02:40:10;;;;;;;6.35;3.03;;;17.30;99.90;;;;;;4964482;28;20043;-71
2023/09/16 02:42:35;;;;;;;5.53;3.28;;;17.30;99.90;;;;;;4967696;28;20083;-71
2023/09/16 02:45:01;;;;;;;4.65;3.15;;;17.40;99.90;;;;;;4969016;28;20130;-71
2023/09/16 02:47:27;;;;;;;5.22;3.42;;;17.30;99.90;;;;;;4971059;28;20031;-71
2023/09/16 02:49:52;;;;;;;5.75;2.90;;;17.30;99.90;;;;;;4966292;28;20066;-71
2023/09/16 02:52:20;;;;;;;6.10;3.78;;;17.30;99.90;;;;;;4972689;28;20054;-71
2023/09/16 02:54:46;;;;;;;5.45;3.33;;;17.30;99.90;;;;;;4966894;28;20118;-71
2023/09/16 02:57:11;;;;;;;5.50;3.10;;;17.30;99.90;;;;;;4969375;28;20114;-71
2023/09/16 02:59:37;;;;;;;5.78;2.95;;;17.40;99.90;;;;;;4972406;28;20082;-72
2023/09/16 03:02:03;;;;;;;4.90;3.03;;;17.20;99.90;;;;;;4963337;28;20051;-71
2023/09/16 03:04:29;;;;;;;4.70;2.95;;;17.20;99.90;;;;;;4962070;28;20035;-71
2023/09/16 03:06:54;;;;;;;5.93;3.40;;;17.20;99.90;;;;;;4960388;28;20081;-72
2023/09/16 03:09:20;;;;;;;4.72;3.20;;;17.30;99.90;;;;;;4957188;28;20035;-71
2023/09/16 03:11:46;;;;;;;5.22;3.42;;;17.30;99.90;;;;;;4961187;28;20031;-71
2023/09/16 03:14:12;;;;;;;5.20;3.28;;;17.30;99.90;;;;;;4961459;28;20572;-71
2023/09/16 03:16:38;;;;;;;7.63;3.22;;;17.30;99.90;;;;;;4953411;28;20062;-71
2023/09/16 03:19:03;;;;;;;6.53;2.95;;;17.20;99.90;;;;;;4959157;28;20121;-71
2023/09/16 03:21:29;;;;;;;7.35;3.47;;;17.20;99.90;;;;;;4954563;28;20433;-71
2023/09/16 03:23:55;;;;;;;7.00;3.45;;;17.30;99.90;;;;;;4958723;28;20104;-71
2023/09/16 03:26:21;;;;;;;5.10;3.30;;;17.30;99.90;;;;;;4963510;28;20696;-71
2023/09/16 03:28:47;;;;;;;7.72;2.97;;;17.30;99.90;;;;;;4953488;28;20035;-71
2023/09/16 03:31:14;;;;;;;6.78;3.33;;;17.20;99.90;;;;;;4958416;28;20110;-71
2023/09/16 03:33:39;;;;;;;5.63;3.25;;;17.20;99.90;;;;;;4954555;28;20032;-71
2023/09/16 03:36:06;;;;;;;4.95;3.15;;;17.20;99.90;;;;;;4967657;28;20075;-71
2023/09/16 03:38:33;;;;;;;8.60;4.00;;;17.30;99.90;;;;;;4958861;28;20027;-71
2023/09/16 03:41:00;;;;;;;5.15;3.20;;;17.20;99.90;;;;;;4962086;28;20134;-71
2023/09/16 03:43:26;;;;;;;8.30;3.35;;;17.20;99.90;;;;;;4954533;28;20063;-71
2023/09/16 03:45:53;;;;;;;8.88;3.97;;;17.20;99.90;;;;;;4963411;28;20043;-72
2023/09/16 03:48:18;;;;;;;5.30;3.47;;;17.20;99.90;;;;;;4955577;28;20030;-71
2023/09/16 03:50:44;;;;;;;6.20;3.47;;;17.20;99.90;;;;;;4953979;28;20027;-71
2023/09/16 03:53:10;;;;;;;4.70;2.88;;;17.20;99.90;;;;;;4944468;28;20039;-71
2023/09/16 03:55:36;;;;;;;5.85;3.50;;;17.20;99.90;;;;;;4945803;28;20968;-71
2023/09/16 03:58:02;;;;;;;8.48;4.30;;;17.20;99.90;;;;;;4949232;28;20031;-71
2023/09/16 04:00:28;;;;;;;7.53;4.65;;;17.20;99.90;;;;;;4947943;28;20042;-71
2023/09/16 04:02:54;;;;;;;11.25;7.03;;;17.10;99.90;;;;;;4950852;28;20027;-71
2023/09/16 04:05:20;;;;;;;10.00;3.58;;;17.10;99.90;;;;;;4947407;28;20099;-71
2023/09/16 04:07:47;;;;;;;5.03;2.80;;;17.10;99.90;;;;;;4948678;28;20039;-71
2023/09/16 04:10:12;;;;;;;4.78;3.28;;;17.10;99.90;;;;;;4948365;28;20039;-71
2023/09/16 04:12:38;;;;;;;6.00;3.08;;;17.00;99.90;;;;;;4948426;28;20698;-71
2023/09/16 04:15:04;;;;;;;6.70;3.70;;;17.10;99.90;;;;;;4950818;28;20591;-71
2023/09/16 04:17:31;;;;;;;5.50;3.80;;;17.00;99.90;;;;;;4952694;28;20038;-71
2023/09/16 04:19:56;;;;;;;8.13;4.03;;;17.00;99.90;;;;;;4951499;28;20153;-71
2023/09/16 04:22:22;;;;;;;5.40;3.40;;;17.00;99.90;;;;;;4947740;28;20083;-71
2023/09/16 04:24:48;;;;;;;6.97;3.65;;;16.90;99.90;;;;;;4946418;28;20545;-71
2023/09/16 04:27:14;;;;;;;6.38;3.70;;;17.00;99.90;;;;;;4953576;28;20516;-71
2023/09/16 04:29:40;;;;;;;8.00;4.35;;;16.90;99.90;;;;;;4949492;28;20033;-71
2023/09/16 04:32:06;;;;;;;7.13;4.10;;;16.90;99.90;;;;;;4944791;28;20262;-71
2023/09/16 04:34:32;;;;;;;8.98;3.97;;;16.90;99.90;;;;;;4948273;28;20037;-71
2023/09/16 04:36:59;;;;;;;8.68;3.47;;;17.00;99.90;;;;;;4949105;28;20027;-71
2023/09/16 04:39:27;;;;;;;7.22;4.25;;;16.90;99.90;;;;;;4943683;28;20038;-71
2023/09/16 04:41:53;;;;;;;5.57;3.42;;;17.00;99.90;;;;;;4943593;28;20086;-71
2023/09/16 04:44:23;;;;;;;6.10;4.05;;;17.10;99.90;;;;;;4944283;28;20031;-71
2023/09/16 04:46:53;;;;;;;6.00;3.75;;;17.00;99.90;;;;;;4945805;28;20031;-71
2023/09/16 04:49:19;;;;;;;5.57;3.88;;;17.00;99.90;;;;;;4945268;28;20023;-71
2023/09/16 04:51:45;;;;;;;6.40;4.60;;;17.00;99.90;;;;;;4944719;28;20023;-71
2023/09/16 04:54:11;;;;;;;7.22;3.78;;;16.90;99.90;;;;;;4945243;28;20098;-71
2023/09/16 04:56:37;;;;;;;7.32;3.85;;;16.80;99.90;;;;;;4956253;28;20386;-71
2023/09/16 04:59:04;;;;;;;10.30;4.85;;;16.90;99.90;;;;;;4947162;28;20035;-71
2023/09/16 05:01:29;;;;;;;7.47;4.55;;;16.90;99.90;;;;;;4946990;28;20058;-71
2023/09/16 05:03:56;;;;;;;6.13;3.60;;;16.90;99.90;;;;;;4943004;28;20027;-71
2023/09/16 05:06:22;;;;;;;6.20;3.88;;;16.90;99.90;;;;;;4945841;28;20039;-71
2023/09/16 05:08:48;;;;;;;5.90;4.05;;;16.80;99.90;;;;;;4958262;28;20026;-71
2023/09/16 05:11:14;;;;;;;7.18;3.85;;;16.80;99.90;;;;;;4946060;28;20043;-71
2023/09/16 05:13:41;;;;;;;5.70;3.85;;;16.80;99.90;;;;;;4945965;28;20027;-71
2023/09/16 05:16:08;;;;;;;6.72;3.60;;;16.80;99.90;;;;;;4947386;28;20039;-71
2023/09/16 05:18:35;;;;;;;5.72;3.53;;;16.80;99.90;;;;;;4950382;28;21063;-71
2023/09/16 05:21:01;;;;;;;6.55;3.97;;;16.70;99.90;;;;;;4946777;28;20047;-71
2023/09/16 05:23:26;;;;;;;7.45;3.55;;;16.80;99.90;;;;;;4948483;28;20474;-71
2023/09/16 05:25:52;;;;;;;5.40;3.47;;;16.90;99.90;;;;;;4946060;28;20150;-71
2023/09/16 05:28:18;;;;;;;8.07;3.97;;;16.80;99.90;;;;;;4946102;28;20035;-71
2023/09/16 05:30:44;;;;;;;5.53;3.45;;;16.80;99.90;;;;;;4954253;28;20505;-71
2023/09/16 05:33:13;;;;;;;5.70;3.15;;;16.80;99.90;;;;;;4946205;28;20388;-71
2023/09/16 05:35:40;;;;;;;5.53;3.60;;;16.90;99.90;;;;;;4950967;28;20500;-71
2023/09/16 05:38:06;;;;;;;6.55;4.05;;;16.90;99.90;;;;;;4946844;28;20024;-71
2023/09/16 05:40:33;;;;;;;7.70;4.15;;;16.90;99.90;;;;;;4949253;28;20050;-71
2023/09/16 05:42:58;;;;;;;5.35;3.53;;;17.00;99.90;;;;;;4950562;28;20027;-73
2023/09/16 05:45:24;;;;;;;7.65;4.47;;;17.10;99.90;;;;;;4953403;28;20037;-73
2023/09/16 05:47:51;;;;;;;5.85;3.50;;;17.10;99.90;;;;;;4946551;28;20035;-73
2023/09/16 05:50:17;;;;;;;6.32;3.72;;;17.10;99.90;;;;;;4959754;28;20027;-73
2023/09/16 05:52:42;;;;;;;7.18;3.85;;;17.20;99.90;;;;;;4951853;28;20531;-73
2023/09/16 05:55:09;;;;;;;6.78;4.53;;;17.20;99.90;;;;;;4948268;28;20050;-73
2023/09/16 05:57:35;;;;;;;4.88;3.35;;;17.30;99.90;;;;;;4945526;28;20035;-72
2023/09/16 06:00:01;;;;;;;6.65;3.70;;;17.40;99.90;;;;;;4947759;28;20473;-73
2023/09/16 06:02:27;;;;;;;6.63;3.83;;;17.50;99.90;;;;;;4952798;28;20489;-73
2023/09/16 06:04:52;;;;;;;6.03;4.13;;;17.50;99.90;;;;;;4953136;28;20022;-73
2023/09/16 06:07:18;;;;;;;5.28;3.85;;;17.50;99.90;;;;;;4946367;28;20550;-73
2023/09/16 06:09:44;;;;;;;6.78;4.03;;;17.50;99.90;;;;;;4947680;28;20035;-73
2023/09/16 06:12:10;;;;;;;5.60;3.38;;;17.40;99.90;;;;;;4962709;28;20033;-72
2023/09/16 06:14:36;;;;;;;7.45;3.53;;;17.40;99.90;;;;;;4957790;28;20048;-72
2023/09/16 06:17:02;;;;;;;6.22;3.70;;;17.40;99.90;;;;;;4952285;28;20851;-73
2023/09/16 06:19:28;;;;;;;6.50;4.53;;;17.40;99.90;;;;;;4957521;28;20702;-73
2023/09/16 06:21:55;;;;;;;7.00;3.88;;;17.30;99.90;;;;;;4948670;28;20039;-73
2023/09/16 06:24:21;;;;;;;7.65;4.55;;;17.40;99.90;;;;;;4950844;28;20035;-73
2023/09/16 06:26:47;;;;;;;5.90;3.40;;;17.40;99.90;;;;;;4943595;28;20035;-72
2023/09/16 06:29:13;;;;;;;8.32;4.30;;;17.50;99.90;;;;;;4943990;28;20031;-72
2023/09/16 06:31:39;;;;;;;7.68;4.20;;;17.60;99.90;;;;;;4960463;28;20031;-72
2023/09/16 06:34:05;;;;;;;5.20;3.28;;;17.60;99.90;;;;;;4949103;28;20027;-72
2023/09/16 06:36:31;;;;;;;6.35;4.30;;;17.70;99.90;;;;;;4950664;28;20027;-72
2023/09/16 06:38:59;;;;;;;6.15;4.13;;;17.80;99.90;;;;;;4957881;28;20037;-72
2023/09/16 06:41:25;;;;;;;7.03;3.90;;;17.80;99.90;;;;;;4953401;28;20031;-72
2023/09/16 06:43:51;;;;;;;6.53;4.38;;;17.90;99.90;;;;;;4961660;28;20038;-73
2023/09/16 06:46:17;;;;;;;5.70;3.30;;;18.00;99.90;;;;;;4957271;28;20054;-72
2023/09/16 06:48:45;;;;;;;6.03;3.60;;;17.90;99.90;;;;;;4956504;28;20109;-72
2023/09/16 06:51:11;;;;;;;7.05;3.92;;;17.90;99.90;;;;;;4954614;28;20382;-72
2023/09/16 06:53:36;;;;;;;6.28;3.83;;;18.10;99.90;;;;;;4955759;28;20025;-72
2023/09/16 06:56:02;;;;;;;5.80;4.07;;;18.30;99.90;;;;;;4957573;28;20198;-73
2023/09/16 06:58:28;;;;;;;6.28;3.92;;;18.30;99.90;;;;;;4956466;28;20039;-73
2023/09/16 07:00:54;;;;;;;5.82;4.22;;;18.40;99.90;;;;;;4954319;28;20373;-73
2023/09/16 07:03:21;;;;;;;7.35;4.07;;;18.50;99.90;;;;;;4953734;28;20035;-73
2023/09/16 07:05:47;;;;;;;6.43;4.13;;;18.50;99.90;;;;;;4949209;28;20039;-73
2023/09/16 07:08:14;;;;;;;6.80;4.38;;;18.50;99.90;;;;;;4954162;28;20105;-73
2023/09/16 07:10:40;;;;;;;6.00;3.58;;;18.50;99.90;;;;;;4946051;28;20078;-72
2023/09/16 07:13:06;;;;;;;6.80;4.35;;;18.50;99.90;;;;;;4948857;28;20478;-72
2023/09/16 07:15:31;;;;;;;6.35;4.15;;;18.50;99.90;;;;;;4951030;28;20635;-72
2023/09/16 07:17:57;;;;;;;7.30;4.25;;;18.40;99.90;;;;;;4956443;28;20361;-72
2023/09/16 07:20:24;;;;;;;5.75;4.00;;;18.50;99.90;;;;;;4953777;28;20054;-72
2023/09/16 07:22:55;;;;;;;5.88;3.95;;;18.50;99.90;;;;;;4962215;28;20536;-72
2023/09/16 07:25:21;;;;;;;5.40;4.10;;;18.70;99.90;;;;;;4955177;28;20043;-72
2023/09/16 07:27:46;;;;;;;7.20;4.18;;;18.70;99.90;;;;;;4948387;28;20054;-73
2023/09/16 07:30:14;;;;;;;6.38;4.20;;;18.80;99.90;;;;;;4947672;28;20027;-72
2023/09/16 07:32:41;;;;;;;6.38;4.32;;;18.80;99.90;;;;;;4949355;28;20043;-72
2023/09/16 07:35:07;;;;;;;7.80;3.83;;;18.80;99.90;;;;;;4952580;28;20031;-72
2023/09/16 07:37:33;;;;;;;6.63;5.00;;;18.90;99.90;;;;;;4953142;28;20359;-73
2023/09/16 07:39:59;;;;;;;7.72;5.00;;;18.90;99.90;;;;;;4949900;28;20102;-73
2023/09/16 07:42:24;;;;;;;6.82;4.35;;;19.00;99.90;;;;;;4953296;28;20482;-73
2023/09/16 07:44:50;;;;;;;8.00;4.60;;;19.10;99.90;;;;;;4955721;28;20041;-73
2023/09/16 07:47:16;;;;;;;7.13;4.95;;;19.20;99.90;;;;;;4955478;28;20101;-72
2023/09/16 07:49:42;;;;;;;6.47;4.60;;;19.10;99.90;;;;;;4948222;28;20496;-72
2023/09/16 07:52:07;;;;;;;8.43;4.85;;;19.00;99.90;;;;;;4952066;28;20030;-73
2023/09/16 07:54:33;;;;;;;8.00;4.75;;;19.00;99.90;;;;;;4951377;28;20329;-73
2023/09/16 07:56:59;;;;;;;6.63;4.05;;;19.00;99.90;;;;;;4954657;28;20034;-73
2023/09/16 07:59:25;;;;;;;6.82;4.28;;;19.10;99.90;;;;;;4951289;28;20035;-72
2023/09/16 08:01:51;;;;;;;7.63;4.20;;;19.10;99.90;;;;;;4949041;28;20046;-72
2023/09/16 08:04:17;;;;;;;6.30;4.40;;;19.20;99.90;;;;;;4946227;28;20030;-72
2023/09/16 08:06:42;;;;;;;7.03;3.92;;;19.30;99.90;;;;;;4951828;28;20086;-72
2023/09/16 08:09:08;;;;;;;5.97;3.97;;;19.20;99.90;;;;;;4955700;28;23157;-72
2023/09/16 08:11:34;;;;;;;6.97;3.85;;;19.30;99.90;;;;;;4950688;28;20042;-72
2023/09/16 08:13:59;;;;;;;8.57;4.60;;;19.30;99.90;;;;;;4949081;28;20049;-72
2023/09/16 08:16:25;;;;;;;7.63;4.85;;;19.40;99.90;;;;;;4952033;28;20039;-72
2023/09/16 08:18:51;;;;;;;7.65;4.38;;;19.40;99.90;;;;;;4951382;28;20037;-72
2023/09/16 08:21:17;;;;;;;6.28;4.68;;;19.40;99.90;;;;;;4956307;28;20562;-72
2023/09/16 08:23:43;;;;;;;8.65;4.65;;;19.50;99.90;;;;;;4949291;28;20035;-72
2023/09/16 08:26:08;;;;;;;5.78;3.92;;;19.70;99.90;;;;;;4954005;28;20114;-72
2023/09/16 08:28:35;;;;;;;6.10;4.10;;;19.90;99.90;;;;;;4957495;28;20401;-72
2023/09/16 08:31:03;;;;;;;7.15;4.32;;;20.00;99.90;;;;;;4949611;28;20630;-72
2023/09/16 08:33:28;;;;;;;23.70;5.80;;;20.20;99.90;;;;;;4949793;28;20513;-72
2023/09/16 08:35:54;;;;;;;7.50;4.45;;;20.30;99.90;;;;;;4952273;28;20138;-71
2023/09/16 08:38:20;;;;;;;7.65;4.07;;;20.40;99.90;;;;;;4949166;28;20158;-71
2023/09/16 08:40:51;;;;;;;5.93;3.83;;;20.50;99.90;;;;;;4954580;28;20058;-72
2023/09/16 08:43:25;;;;;;;6.90;4.68;;;20.60;99.90;;;;;;4954011;28;20030;-72
2023/09/16 08:46:02;;;;;;;;;;;20.80;99.90;;;;;;4957150;28;20039;-72
2023/09/16 08:48:32;;;;;;;9.38;5.38;;;20.90;99.90;;;;;;4952513;28;19917;-72
2023/09/16 08:51:01;;;;;;;8.20;4.47;;;20.90;99.90;;;;;;4948911;28;20042;-72
2023/09/16 08:53:29;;;;;;;8.00;4.47;;;20.90;99.90;;;;;;4946778;28;20046;-72
2023/09/16 08:55:55;;;;;;;8.57;4.65;;;20.80;99.90;;;;;;4948082;28;20122;-72
2023/09/16 08:58:21;;;;;;;7.13;4.85;;;20.70;99.90;;;;;;4948753;28;20062;-72
2023/09/16 09:00:47;;;;;;;6.40;4.47;;;20.80;99.90;;;;;;4950277;28;20383;-72
2023/09/16 09:03:13;;;;;;;7.20;4.63;;;20.90;99.90;;;;;;4952038;28;20027;-72
2023/09/16 09:05:39;;;;;;;9.50;4.22;;;20.90;99.90;;;;;;4950409;28;20497;-72
2023/09/16 09:08:10;;;;;;;8.20;4.43;;;21.70;99.90;;;;;;4947849;28;20031;-72
2023/09/16 09:10:37;;;;;;;6.80;3.67;;;22.60;99.90;;;;;;4948401;28;20071;-72
2023/09/16 09:13:05;;;;;;;5.97;4.43;;;22.40;99.90;;;;;;4953694;28;20032;-72
2023/09/16 09:15:32;;;;;;;6.65;3.65;;;21.90;99.90;;;;;;4946946;28;20098;-72
2023/09/16 09:17:58;;;;;;;5.35;3.75;;;21.90;99.90;;;;;;4962912;28;20054;-72
2023/09/16 09:20:28;;;;;;;5.88;3.75;;;22.10;99.90;;;;;;4950390;28;20033;-72
2023/09/16 09:22:54;;;;;;;7.93;4.28;;;22.00;99.90;;;;;;4955399;28;20035;-73
2023/09/16 09:25:22;;;;;;;7.72;4.53;;;21.90;99.90;;;;;;4950575;28;20069;-72
2023/09/16 09:27:49;;;;;;;6.10;4.35;;;21.90;99.90;;;;;;4950579;28;20042;-72
2023/09/16 09:30:15;;;;;;;7.95;4.50;;;21.60;99.90;;;;;;4961130;28;20469;-72
2023/09/16 09:32:47;;;;;;;6.75;4.47;;;21.40;99.90;;;;;;4968254;28;20041;-72
2023/09/16 09:35:13;;;;;;;8.10;4.53;;;21.60;99.90;;;;;;4968731;28;20094;-72
2023/09/16 09:37:40;;;;;;;6.20;4.35;;;21.50;99.90;;;;;;4967697;28;20583;-72
2023/09/16 09:40:09;;;;;;;6.63;4.20;;;21.40;99.90;;;;;;4968864;28;20042;-72
2023/09/16 09:42:43;;;;;;;7.40;4.65;;;21.40;99.90;;;;;;4968902;28;20615;-72
2023/09/16 09:45:10;;;;;;;7.22;4.47;;;21.30;99.90;;;;;;4968953;28;20034;-72
2023/09/16 09:47:40;;;;;;;9.93;4.03;;;21.20;99.90;;;;;;4969624;28;20065;-72
2023/09/16 09:50:07;;;;;;;7.97;4.32;;;21.20;99.90;;;;;;4967561;28;20046;-72
2023/09/16 09:52:34;;;;;;;7.80;4.38;;;21.20;99.90;;;;;;4958496;28;20856;-72
2023/09/16 09:55:01;;;;;;;6.03;4.13;;;21.30;99.90;;;;;;4963632;28;20085;-72
2023/09/16 09:57:27;;;;;;;5.60;3.63;;;21.40;99.90;;;;;;4966373;28;20026;-71
2023/09/16 09:59:54;;;;;;;6.75;3.90;;;21.50;99.90;;;;;;4966536;28;20023;-71
2023/09/16 10:02:26;;;;;;;13.77;5.05;;;21.50;99.90;;;;;;4964236;28;20559;-71
2023/09/16 10:05:02;;;;;;;6.97;3.97;;;21.60;99.90;;;;;;4963760;28;20035;-71
2023/09/16 10:07:31;;;;;;;5.85;3.83;;;21.70;99.90;;;;;;4967626;28;20043;-72
2023/09/16 10:09:57;;;;;;;8.30;4.20;;;21.80;99.90;;;;;;4967256;28;20075;-72
2023/09/16 10:12:23;;;;;;;4.95;3.08;;;21.80;99.90;;;;;;4963198;28;20026;-71
2023/09/16 10:14:51;;;;;;;5.82;3.55;;;21.90;99.90;;;;;;4971685;28;20101;-71
2023/09/16 10:17:17;;;;;;;8.25;3.67;;;22.20;99.90;;;;;;4966027;28;20023;-72
2023/09/16 10:19:44;;;;;;;5.53;4.22;;;22.40;99.90;;;;;;4962799;28;20066;-71
2023/09/16 10:22:11;;;;;;;9.02;3.90;;;22.50;99.90;;;;;;4965324;28;20111;-71
2023/09/16 10:24:40;;;;;;;5.88;3.80;;;22.60;99.90;;;;;;4965548;28;20118;-72
2023/09/16 10:27:17;;;;;;;6.85;4.80;;;22.60;99.90;;;;;;4962535;28;20035;-70
2023/09/16 10:29:44;;;;;;;13.50;4.57;;;22.80;99.90;;;;;;4961792;28;20027;-71
2023/09/16 10:32:12;;;;;;;5.70;3.53;;;22.90;99.90;;;;;;4965725;28;20370;-71
2023/09/16 10:34:41;;;;;;;6.53;3.33;;;22.90;99.90;;;;;;4969107;28;20090;-71
2023/09/16 10:37:08;;;;;;;21.02;3.67;;;23.00;99.90;;;;;;4962041;28;20495;-71
2023/09/16 10:39:34;;;;;;;6.15;3.72;;;23.00;99.90;;;;;;4965185;28;20035;-72
2023/09/16 10:42:01;;;;;;;10.70;4.05;;;22.80;99.90;;;;;;4965995;28;20045;-71
2023/09/16 10:44:29;;;;;;;5.57;3.67;;;22.90;99.90;;;;;;4967290;28;20023;-72
2023/09/16 10:46:58;;;;;;;5.10;3.10;;;22.70;99.90;;;;;;4967948;28;20023;-71
2023/09/16 10:49:24;;;;;;;5.60;3.50;;;22.80;99.90;;;;;;4966841;28;20385;-71
2023/09/16 10:51:50;;;;;;;9.07;3.83;;;22.90;99.90;;;;;;4975805;28;20034;-71
2023/09/16 10:54:33;;;;;;;5.03;3.28;;;22.90;99.90;;;;;;4967306;28;20122;-72
2023/09/16 10:57:07;;;;;;;4.97;3.45;;;22.90;99.90;;;;;;4967383;28;20047;-72
2023/09/16 10:59:35;;;;;;;8.02;3.72;;;23.10;99.90;;;;;;4965970;28;20117;-73
2023/09/16 11:02:11;;;;;;;5.07;3.83;;;23.30;99.90;;;;;;4972514;28;20088;-73
2023/09/16 11:04:37;;;;;;;9.23;3.33;;;23.20;99.90;;;;;;4964286;28;20026;-73
2023/09/16 11:07:04;;;;;;;11.18;3.67;;;23.30;99.90;;;;;;4968318;28;20089;-73
2023/09/16 11:09:29;;;;;;;5.32;3.63;;;23.50;99.90;;;;;;4965615;28;20040;-73
2023/09/16 11:11:56;;;;;;;4.88;3.70;;;23.40;99.90;;;;;;4967490;28;20035;-73
2023/09/16 11:14:22;;;;;;;4.97;3.20;;;23.50;99.90;;;;;;4966597;28;20038;-73
2023/09/16 11:16:50;;;;;;;6.60;3.38;;;23.30;99.90;;;;;;4969114;28;20469;-72
2023/09/16 11:19:28;;;;;;;8.40;3.83;;;23.40;99.90;;;;;;4967546;28;20034;-73
2023/09/16 11:21:54;;;;;;;4.97;3.58;;;23.80;99.90;;;;;;4966995;28;20045;-73
2023/09/16 11:24:19;;;;;;;4.40;3.15;;;24.00;99.90;;;;;;4961728;28;20039;-72
2023/09/16 11:26:49;;;;;;;7.60;5.63;;;24.10;99.90;;;;;;4952568;28;20564;-73
2023/09/16 11:29:16;;;;;;;6.53;2.95;;;24.20;99.90;;;;;;4951650;28;20034;-73
2023/09/16 11:31:42;;;;;;;5.60;3.28;;;24.00;99.90;;;;;;4946363;28;20035;-72
2023/09/16 11:34:10;;;;;;;5.50;3.55;;;23.90;99.90;;;;;;4946562;28;20029;-73
2023/09/16 11:36:35;;;;;;;5.00;2.90;;;23.90;99.90;;;;;;4948601;28;20444;-73
2023/09/16 11:39:11;;;;;;;3.80;2.53;;;23.40;99.90;;;;;;4953571;28;20058;-72
2023/09/16 11:41:37;;;;;;;5.82;2.90;;;23.40;99.80;;;;;;4948303;28;20049;-72
2023/09/16 11:44:04;;;;;;;6.30;3.13;;;23.30;99.90;;;;;;4946710;28;20042;-73
2023/09/16 11:46:31;;;;;;;6.55;2.95;;;23.20;99.90;;;;;;4959007;28;20050;-73
2023/09/16 11:49:08;;;;;;;7.25;2.90;;;23.30;99.90;;;;;;4964388;28;20429;-73
2023/09/16 11:51:35;;;;;;;4.78;2.80;;;23.40;99.90;;;;;;4963796;28;20468;-73
2023/09/16 11:54:02;;;;;;;4.70;3.00;;;23.50;99.90;;;;;;4968430;28;20097;-73
2023/09/16 11:56:29;;;;;;;4.50;3.00;;;23.40;99.90;;;;;;4963205;28;20926;-73
2023/09/16 11:58:57;;;;;;;7.60;3.03;;;23.60;99.90;;;;;;4966185;28;20129;-72
2023/09/16 12:01:24;;;;;;;4.20;2.50;;;23.70;99.90;;;;;;4965745;28;20061;-73
2023/09/16 12:03:50;;;;;;;3.90;2.55;;;23.90;99.90;;;;;;4963000;28;20909;-73
2023/09/16 12:06:20;;;;;;;5.03;2.95;;;24.10;99.90;;;;;;4965269;28;20035;-73
2023/09/16 12:08:47;;;;;;;6.28;2.38;;;24.10;99.90;;;;;;4966478;28;20081;-73
2023/09/16 12:11:13;;;;;;;4.35;2.67;;;24.30;99.60;;;;;;4965598;28;20089;-74
2023/09/16 12:13:40;;;;;;;4.63;2.60;;;24.40;99.30;;;;;;4962550;28;20031;-73
2023/09/16 12:16:06;;;;;;;6.90;3.10;;;24.40;99.50;;;;;;4964947;28;20027;-73
2023/09/16 12:18:32;;;;;;;10.88;3.40;;;24.40;99.90;;;;;;4965775;28;20026;-73
2023/09/16 12:20:58;;;;;;;5.25;2.47;;;24.30;99.90;;;;;;4966112;28;20481;-73
2023/09/16 12:23:27;;;;;;;6.38;3.17;;;24.20;99.90;;;;;;4966175;28;20060;-74
2023/09/16 12:25:53;;;;;;;4.75;2.33;;;24.10;99.90;;;;;;4965692;28;20947;-74
2023/09/16 12:28:21;;;;;;;4.70;2.60;;;24.10;99.60;;;;;;4966354;28;20097;-73
2023/09/16 12:30:55;;;;;;;8.77;3.20;;;24.10;99.90;;;;;;4969172;28;20034;-73
2023/09/16 12:33:21;;;;;;;6.00;3.10;;;24.10;99.90;;;;;;4962862;28;20045;-73
2023/09/16 12:35:50;;;;;;;5.40;2.63;;;24.30;99.80;;;;;;4964403;28;20041;-73
2023/09/16 12:38:15;;;;;;;5.80;2.42;;;24.30;99.80;;;;;;4963283;28;20039;-73
2023/09/16 12:40:44;;;;;;;5.68;2.80;;;24.30;99.60;;;;;;4957759;28;20039;-74
2023/09/16 12:43:11;;;;;;;4.15;3.03;;;24.40;99.90;;;;;;4969748;28;20221;-73